Frogmore, South Carolina
Current Conditions -  °F | °C
As of 11:15 AM on Thursday 23 Oct 2014 (Local Time) from KARW Reporting Station
Clear Clear  
Wind Chill: 61°   Ceiling: Unl
Heat Index: 61°   Visibility: 10mi
Dew Point: 46°   Wind: 7mph
Humidity: 59%   Direction: 10°N
Pressure: 30.1"   Gusts: NA
Location:  32.3871°N, 80.5485°W
Report Text: KARW 231515Z AUTO 01006KT 10SM CLR 16/08 A3010 RMK AO2
Loading
Personal Weather Stations






























Interactive Weather Map
Tropical Storm Tracking
New forecast layout! Learn more

10-Day Weather Forecast

Advertisements
Track Severe Weather on mobile